<?xml version="1.0" encoding="UTF-8" standalone="no" ?>
<gpx xmlns="http://www.topografix.com/GPX/1/1" xmlns:xsi="http://www.w3.org/2001/XMLSchema-instance" xsi:schemaLocation="http://www.topografix.com/GPX/1/1 http://www.topografix.com/GPX/1/1/gpx.xsd" version="1.1" creator="VisuGPX - https://www.visugpx.com">
  <metadata>
    <name>ARQUES LA SEYNE SUR MER 1497 KM</name>
    <desc><![CDATA[Rando de Arques dans le Pas de Calais jusque La Seyne sur Mer dans le Var, 1497 km]]></desc>
  </metadata>
  <trk>
    <name><![CDATA[Randonnée du 29/06/2021 à 10:46]]></name>
    <extensions>
      <line xmlns="http://www.topografix.com/GPX/gpx_style/0/2">
        <color>0000FF</color>
        <width>4</width>
      </line>
    </extensions>
    <trkseg>
      <trkpt lat="50.74202" lon="2.29583">
        <ele>4</ele>
        <time>2021-06-29T10:46:43+02:00</time>
      </trkpt>
      <trkpt lat="50.73956" lon="2.29619">
        <ele>5</ele>
        <time>2021-06-29T10:46:48+02:00</time>
      </trkpt>
      <trkpt lat="50.73866" lon="2.29647">
        <ele>6</ele>
        <time>2021-06-29T10:46:53+02:00</time>
      </trkpt>
      <trkpt lat="50.73621" lon="2.29813">
        <ele>9</ele>
        <time>2021-06-29T10:46:58+02:00</time>
      </trkpt>
      <trkpt lat="50.73396" lon="2.30066">
        <ele>8</ele>
        <time>2021-06-29T10:47:03+02:00</time>
      </trkpt>
      <trkpt lat="50.73251" lon="2.30254">
        <ele>9</ele>
        <time>2021-06-29T10:47:08+02:00</time>
      </trkpt>
      <trkpt lat="50.7315" lon="2.30444">
        <ele>13</ele>
        <time>2021-06-29T10:47:13+02:00</time>
      </trkpt>
      <trkpt lat="50.73068" lon="2.30601">
        <ele>20</ele>
        <time>2021-06-29T10:47:18+02:00</time>
      </trkpt>
      <trkpt lat="50.73049" lon="2.30567">
        <ele>17</ele>
        <time>2021-06-29T10:47:23+02:00</time>
      </trkpt>
      <trkpt lat="50.72995" lon="2.30642">
        <ele>16</ele>
        <time>2021-06-29T10:47:28+02:00</time>
      </trkpt>
      <trkpt lat="50.7293" lon="2.30688">
        <ele>11</ele>
        <time>2021-06-29T10:47:33+02:00</time>
      </trkpt>
      <trkpt lat="50.7287" lon="2.30624">
        <ele>14</ele>
        <time>2021-06-29T10:47:38+02:00</time>
      </trkpt>
      <trkpt lat="50.72825" lon="2.30741">
        <ele>16</ele>
        <time>2021-06-29T10:47:43+02:00</time>
      </trkpt>
      <trkpt lat="50.72795" lon="2.30714">
        <ele>19</ele>
        <time>2021-06-29T10:47:48+02:00</time>
      </trkpt>
      <trkpt lat="50.72759" lon="2.30803">
        <ele>22</ele>
        <time>2021-06-29T10:47:53+02:00</time>
      </trkpt>
      <trkpt lat="50.72637" lon="2.30775">
        <ele>22</ele>
        <time>2021-06-29T10:47:58+02:00</time>
      </trkpt>
      <trkpt lat="50.72623" lon="2.30837">
        <ele>25</ele>
        <time>2021-06-29T10:48:03+02:00</time>
      </trkpt>
      <trkpt lat="50.72468" lon="2.31134">
        <ele>28</ele>
        <time>2021-06-29T10:48:08+02:00</time>
      </trkpt>
      <trkpt lat="50.7239" lon="2.31378">
        <ele>32</ele>
        <time>2021-06-29T10:48:13+02:00</time>
      </trkpt>
      <trkpt lat="50.72182" lon="2.31766">
        <ele>32</ele>
        <time>2021-06-29T10:48:18+02:00</time>
      </trkpt>
      <trkpt lat="50.72026" lon="2.32176">
        <ele>30</ele>
        <time>2021-06-29T10:48:23+02:00</time>
      </trkpt>
      <trkpt lat="50.71817" lon="2.32627">
        <ele>26</ele>
        <time>2021-06-29T10:48:28+02:00</time>
      </trkpt>
      <trkpt lat="50.71739" lon="2.3281">
        <ele>28</ele>
        <time>2021-06-29T10:48:33+02:00</time>
      </trkpt>
      <trkpt lat="50.71602" lon="2.33117">
        <ele>29</ele>
        <time>2021-06-29T10:48:38+02:00</time>
      </trkpt>
      <trkpt lat="50.71489" lon="2.3333">
        <ele>30</ele>
        <time>2021-06-29T10:48:43+02:00</time>
      </trkpt>
      <trkpt lat="50.71418" lon="2.33445">
        <ele>31</ele>
        <time>2021-06-29T10:48:48+02:00</time>
      </trkpt>
      <trkpt lat="50.7133" lon="2.33637">
        <ele>25</ele>
        <time>2021-06-29T10:48:53+02:00</time>
      </trkpt>
      <trkpt lat="50.71269" lon="2.33722">
        <ele>28</ele>
        <time>2021-06-29T10:48:58+02:00</time>
      </trkpt>
      <trkpt lat="50.71211" lon="2.33782">
        <ele>29</ele>
        <time>2021-06-29T10:49:03+02:00</time>
      </trkpt>
      <trkpt lat="50.71104" lon="2.33928">
        <ele>29</ele>
        <time>2021-06-29T10:49:08+02:00</time>
      </trkpt>
      <trkpt lat="50.71011" lon="2.34021">
        <ele>30</ele>
        <time>2021-06-29T10:49:13+02:00</time>
      </trkpt>
      <trkpt lat="50.7091" lon="2.34101">
        <ele>29</ele>
        <time>2021-06-29T10:49:18+02:00</time>
      </trkpt>
      <trkpt lat="50.70841" lon="2.34275">
        <ele>29</ele>
        <time>2021-06-29T10:49:23+02:00</time>
      </trkpt>
      <trkpt lat="50.70808" lon="2.34554">
        <ele>32</ele>
        <time>2021-06-29T10:49:28+02:00</time>
      </trkpt>
      <trkpt lat="50.70779" lon="2.35316">
        <ele>27</ele>
        <time>2021-06-29T10:49:33+02:00</time>
      </trkpt>
      <trkpt lat="50.70775" lon="2.35756">
        <ele>22</ele>
        <time>2021-06-29T10:49:38+02:00</time>
      </trkpt>
      <trkpt lat="50.70777" lon="2.36009">
        <ele>27</ele>
        <time>2021-06-29T10:49:43+02:00</time>
      </trkpt>
      <trkpt lat="50.70751" lon="2.36166">
        <ele>27</ele>
        <time>2021-06-29T10:49:48+02:00</time>
      </trkpt>
      <trkpt lat="50.70734" lon="2.36306">
        <ele>26</ele>
        <time>2021-06-29T10:49:53+02:00</time>
      </trkpt>
      <trkpt lat="50.70804" lon="2.36473">
        <ele>27</ele>
        <time>2021-06-29T10:49:58+02:00</time>
      </trkpt>
      <trkpt lat="50.70755" lon="2.366">
        <ele>28</ele>
        <time>2021-06-29T10:50:03+02:00</time>
      </trkpt>
      <trkpt lat="50.70679" lon="2.36691">
        <ele>27</ele>
        <time>2021-06-29T10:50:08+02:00</time>
      </trkpt>
      <trkpt lat="50.70613" lon="2.36732">
        <ele>27</ele>
        <time>2021-06-29T10:50:13+02:00</time>
      </trkpt>
      <trkpt lat="50.70546" lon="2.36825">
        <ele>26</ele>
        <time>2021-06-29T10:50:18+02:00</time>
      </trkpt>
      <trkpt lat="50.7048" lon="2.36894">
        <ele>25</ele>
        <time>2021-06-29T10:50:23+02:00</time>
      </trkpt>
      <trkpt lat="50.70459" lon="2.37007">
        <ele>26</ele>
        <time>2021-06-29T10:50:28+02:00</time>
      </trkpt>
      <trkpt lat="50.70363" lon="2.37074">
        <ele>28</ele>
        <time>2021-06-29T10:50:33+02:00</time>
      </trkpt>
      <trkpt lat="50.70232" lon="2.37221">
        <ele>29</ele>
        <time>2021-06-29T10:50:38+02:00</time>
      </trkpt>
      <trkpt lat="50.70146" lon="2.37243">
        <ele>26</ele>
        <time>2021-06-29T10:50:43+02:00</time>
      </trkpt>
      <trkpt lat="50.70082" lon="2.37288">
        <ele>24</ele>
        <time>2021-06-29T10:50:48+02:00</time>
      </trkpt>
      <trkpt lat="50.69974" lon="2.37326">
        <ele>24</ele>
        <time>2021-06-29T10:50:53+02:00</time>
      </trkpt>
      <trkpt lat="50.69783" lon="2.37494">
        <ele>21</ele>
        <time>2021-06-29T10:50:58+02:00</time>
      </trkpt>
      <trkpt lat="50.69747" lon="2.37474">
        <ele>22</ele>
        <time>2021-06-29T10:51:03+02:00</time>
      </trkpt>
      <trkpt lat="50.69533" lon="2.3768">
        <ele>21</ele>
        <time>2021-06-29T10:51:08+02:00</time>
      </trkpt>
      <trkpt lat="50.69454" lon="2.37783">
        <ele>21</ele>
        <time>2021-06-29T10:51:13+02:00</time>
      </trkpt>
      <trkpt lat="50.69426" lon="2.37859">
        <ele>22</ele>
        <time>2021-06-29T10:51:18+02:00</time>
      </trkpt>
      <trkpt lat="50.69202" lon="2.38108">
        <ele>23</ele>
        <time>2021-06-29T10:51:23+02:00</time>
      </trkpt>
      <trkpt lat="50.69113" lon="2.38263">
        <ele>24</ele>
        <time>2021-06-29T10:51:28+02:00</time>
      </trkpt>
      <trkpt lat="50.69083" lon="2.38419">
        <ele>26</ele>
        <time>2021-06-29T10:51:33+02:00</time>
      </trkpt>
      <trkpt lat="50.69017" lon="2.38566">
        <ele>25</ele>
        <time>2021-06-29T10:51:38+02:00</time>
      </trkpt>
      <trkpt lat="50.68993" lon="2.38664">
        <ele>24</ele>
        <time>2021-06-29T10:51:43+02:00</time>
      </trkpt>
      <trkpt lat="50.6897" lon="2.39084">
        <ele>23</ele>
        <time>2021-06-29T10:51:48+02:00</time>
      </trkpt>
      <trkpt lat="50.68963" lon="2.39345">
        <ele>22</ele>
        <time>2021-06-29T10:51:53+02:00</time>
      </trkpt>
      <trkpt lat="50.68926" lon="2.39492">
        <ele>23</ele>
        <time>2021-06-29T10:51:58+02:00</time>
      </trkpt>
      <trkpt lat="50.68876" lon="2.39511">
        <ele>23</ele>
        <time>2021-06-29T10:52:03+02:00</time>
      </trkpt>
      <trkpt lat="50.68807" lon="2.39422">
        <ele>24</ele>
        <time>2021-06-29T10:52:08+02:00</time>
      </trkpt>
      <trkpt lat="50.68683" lon="2.39387">
        <ele>22</ele>
        <time>2021-06-29T10:52:13+02:00</time>
      </trkpt>
      <trkpt lat="50.68597" lon="2.39494">
        <ele>21</ele>
        <time>2021-06-29T10:52:18+02:00</time>
      </trkpt>
      <trkpt lat="50.68555" lon="2.39529">
        <ele>22</ele>
        <time>2021-06-29T10:52:23+02:00</time>
      </trkpt>
      <trkpt lat="50.68487" lon="2.39632">
        <ele>21</ele>
        <time>2021-06-29T10:52:28+02:00</time>
      </trkpt>
      <trkpt lat="50.68217" lon="2.39791">
        <ele>23</ele>
        <time>2021-06-29T10:52:33+02:00</time>
      </trkpt>
      <trkpt lat="50.68023" lon="2.3988">
        <ele>24</ele>
        <time>2021-06-29T10:52:38+02:00</time>
      </trkpt>
      <trkpt lat="50.67708" lon="2.3987">
        <ele>29</ele>
        <time>2021-06-29T10:52:43+02:00</time>
      </trkpt>
      <trkpt lat="50.6762" lon="2.39848">
        <ele>29</ele>
        <time>2021-06-29T10:52:48+02:00</time>
      </trkpt>
      <trkpt lat="50.67443" lon="2.39912">
        <ele>28</ele>
        <time>2021-06-29T10:52:53+02:00</time>
      </trkpt>
      <trkpt lat="50.67202" lon="2.39942">
        <ele>28</ele>
        <time>2021-06-29T10:52:58+02:00</time>
      </trkpt>
      <trkpt lat="50.67086" lon="2.39967">
        <ele>28</ele>
        <time>2021-06-29T10:53:03+02:00</time>
      </trkpt>
      <trkpt lat="50.66971" lon="2.40048">
        <ele>24</ele>
        <time>2021-06-29T10:53:08+02:00</time>
      </trkpt>
      <trkpt lat="50.66862" lon="2.40056">
        <ele>22</ele>
        <time>2021-06-29T10:53:13+02:00</time>
      </trkpt>
      <trkpt lat="50.66772" lon="2.40202">
        <ele>20</ele>
        <time>2021-06-29T10:53:18+02:00</time>
      </trkpt>
      <trkpt lat="50.66694" lon="2.40212">
        <ele>21</ele>
        <time>2021-06-29T10:53:23+02:00</time>
      </trkpt>
      <trkpt lat="50.66666" lon="2.40242">
        <ele>21</ele>
        <time>2021-06-29T10:53:28+02:00</time>
      </trkpt>
      <trkpt lat="50.66613" lon="2.40482">
        <ele>21</ele>
        <time>2021-06-29T10:53:33+02:00</time>
      </trkpt>
      <trkpt lat="50.6646" lon="2.40448">
        <ele>21</ele>
        <time>2021-06-29T10:53:38+02:00</time>
      </trkpt>
      <trkpt lat="50.6631" lon="2.4043">
        <ele>21</ele>
        <time>2021-06-29T10:53:43+02:00</time>
      </trkpt>
      <trkpt lat="50.66149" lon="2.40427">
        <ele>24</ele>
        <time>2021-06-29T10:53:48+02:00</time>
      </trkpt>
      <trkpt lat="50.65977" lon="2.40427">
        <ele>21</ele>
        <time>2021-06-29T10:53:53+02:00</time>
      </trkpt>
      <trkpt lat="50.6574" lon="2.40488">
        <ele>22</ele>
        <time>2021-06-29T10:53:58+02:00</time>
      </trkpt>
      <trkpt lat="50.65063" lon="2.4078">
        <ele>20</ele>
        <time>2021-06-29T10:54:03+02:00</time>
      </trkpt>
      <trkpt lat="50.64854" lon="2.40759">
        <ele>22</ele>
        <time>2021-06-29T10:54:08+02:00</time>
      </trkpt>
      <trkpt lat="50.64458" lon="2.40538">
        <ele>21</ele>
        <time>2021-06-29T10:54:13+02:00</time>
      </trkpt>
      <trkpt lat="50.64428" lon="2.4056">
        <ele>20</ele>
        <time>2021-06-29T10:54:18+02:00</time>
      </trkpt>
      <trkpt lat="50.644" lon="2.40544">
        <ele>19</ele>
        <time>2021-06-29T10:54:23+02:00</time>
      </trkpt>
      <trkpt lat="50.6438" lon="2.40556">
        <ele>19</ele>
        <time>2021-06-29T10:54:28+02:00</time>
      </trkpt>
      <trkpt lat="50.64378" lon="2.40612">
        <ele>18</ele>
        <time>2021-06-29T10:54:33+02:00</time>
      </trkpt>
      <trkpt lat="50.64341" lon="2.40637">
        <ele>17</ele>
        <time>2021-06-29T10:54:38+02:00</time>
      </trkpt>
      <trkpt lat="50.64269" lon="2.40664">
        <ele>19</ele>
        <time>2021-06-29T10:54:43+02:00</time>
      </trkpt>
      <trkpt lat="50.64214" lon="2.40824">
        <ele>21</ele>
        <time>2021-06-29T10:54:48+02:00</time>
      </trkpt>
      <trkpt lat="50.64204" lon="2.40741">
        <ele>21</ele>
        <time>2021-06-29T10:54:53+02:00</time>
      </trkpt>
      <trkpt lat="50.64175" lon="2.40723">
        <ele>21</ele>
        <time>2021-06-29T10:54:58+02:00</time>
      </trkpt>
      <trkpt lat="50.6415" lon="2.40691">
        <ele>22</ele>
        <time>2021-06-29T10:55:03+02:00</time>
      </trkpt>
      <trkpt lat="50.64151" lon="2.40622">
        <ele>22</ele>
        <time>2021-06-29T10:55:08+02:00</time>
      </trkpt>
      <trkpt lat="50.64138" lon="2.40596">
        <ele>23</ele>
        <time>2021-06-29T10:55:13+02:00</time>
      </trkpt>
      <trkpt lat="50.64101" lon="2.40594">
        <ele>23</ele>
        <time>2021-06-29T10:55:18+02:00</time>
      </trkpt>
      <trkpt lat="50.64061" lon="2.40614">
        <ele>24</ele>
        <time>2021-06-29T10:55:23+02:00</time>
      </trkpt>
      <trkpt lat="50.63946" lon="2.41088">
        <ele>22</ele>
        <time>2021-06-29T10:55:28+02:00</time>
      </trkpt>
      <trkpt lat="50.63961" lon="2.41172">
        <ele>23</ele>
        <time>2021-06-29T10:55:33+02:00</time>
      </trkpt>
      <trkpt lat="50.63949" lon="2.41221">
        <ele>23</ele>
        <time>2021-06-29T10:55:38+02:00</time>
      </trkpt>
      <trkpt lat="50.63947" lon="2.41364">
        <ele>21</ele>
        <time>2021-06-29T10:55:43+02:00</time>
      </trkpt>
      <trkpt lat="50.63804" lon="2.41402">
        <ele>21</ele>
        <time>2021-06-29T10:55:48+02:00</time>
      </trkpt>
      <trkpt lat="50.6377" lon="2.41594">
        <ele>20</ele>
        <time>2021-06-29T10:55:53+02:00</time>
      </trkpt>
      <trkpt lat="50.63712" lon="2.41772">
        <ele>19</ele>
        <time>2021-06-29T10:55:58+02:00</time>
      </trkpt>
      <trkpt lat="50.63574" lon="2.4178">
        <ele>20</ele>
        <time>2021-06-29T10:56:03+02:00</time>
      </trkpt>
      <trkpt lat="50.63503" lon="2.41785">
        <ele>19</ele>
        <time>2021-06-29T10:56:08+02:00</time>
      </trkpt>
      <trkpt lat="50.6326" lon="2.41786">
        <ele>18</ele>
        <time>2021-06-29T10:56:13+02:00</time>
      </trkpt>
      <trkpt lat="50.62985" lon="2.41882">
        <ele>18</ele>
        <time>2021-06-29T10:56:18+02:00</time>
      </trkpt>
      <trkpt lat="50.62776" lon="2.41934">
        <ele>19</ele>
        <time>2021-06-29T10:56:23+02:00</time>
      </trkpt>
      <trkpt lat="50.62683" lon="2.41975">
        <ele>18</ele>
        <time>2021-06-29T10:56:28+02:00</time>
      </trkpt>
      <trkpt lat="50.62597" lon="2.42175">
        <ele>22</ele>
        <time>2021-06-29T10:56:33+02:00</time>
      </trkpt>
      <trkpt lat="50.62328" lon="2.42343">
        <ele>28</ele>
        <time>2021-06-29T10:56:38+02:00</time>
      </trkpt>
      <trkpt lat="50.62076" lon="2.42667">
        <ele>34</ele>
        <time>2021-06-29T10:56:43+02:00</time>
      </trkpt>
      <trkpt lat="50.61652" lon="2.43597">
        <ele>31</ele>
        <time>2021-06-29T10:56:48+02:00</time>
      </trkpt>
      <trkpt lat="50.6141" lon="2.441">
        <ele>33</ele>
        <time>2021-06-29T10:56:53+02:00</time>
      </trkpt>
      <trkpt lat="50.61182" lon="2.4441">
        <ele>34</ele>
        <time>2021-06-29T10:56:58+02:00</time>
      </trkpt>
      <trkpt lat="50.60762" lon="2.44471">
        <ele>21</ele>
        <time>2021-06-29T10:57:03+02:00</time>
      </trkpt>
      <trkpt lat="50.60564" lon="2.44552">
        <ele>19</ele>
        <time>2021-06-29T10:57:08+02:00</time>
      </trkpt>
      <trkpt lat="50.60298" lon="2.44658">
        <ele>19</ele>
        <time>2021-06-29T10:57:13+02:00</time>
      </trkpt>
      <trkpt lat="50.60088" lon="2.4472">
        <ele>17</ele>
        <time>2021-06-29T10:57:18+02:00</time>
      </trkpt>
      <trkpt lat="50.60029" lon="2.448">
        <ele>19</ele>
        <time>2021-06-29T10:57:23+02:00</time>
      </trkpt>
      <trkpt lat="50.59876" lon="2.45134">
        <ele>20</ele>
        <time>2021-06-29T10:57:28+02:00</time>
      </trkpt>
      <trkpt lat="50.59846" lon="2.45379">
        <ele>19</ele>
        <time>2021-06-29T10:57:33+02:00</time>
      </trkpt>
      <trkpt lat="50.59197" lon="2.45532">
        <ele>21</ele>
        <time>2021-06-29T10:57:38+02:00</time>
      </trkpt>
      <trkpt lat="50.59114" lon="2.45674">
        <ele>23</ele>
        <time>2021-06-29T10:57:43+02:00</time>
      </trkpt>
      <trkpt lat="50.58973" lon="2.45564">
        <ele>26</ele>
        <time>2021-06-29T10:57:48+02:00</time>
      </trkpt>
      <trkpt lat="50.58848" lon="2.45799">
        <ele>25</ele>
        <time>2021-06-29T10:57:53+02:00</time>
      </trkpt>
      <trkpt lat="50.58734" lon="2.45865">
        <ele>24</ele>
        <time>2021-06-29T10:57:58+02:00</time>
      </trkpt>
      <trkpt lat="50.58476" lon="2.45795">
        <ele>23</ele>
        <time>2021-06-29T10:58:03+02:00</time>
      </trkpt>
      <trkpt lat="50.58319" lon="2.45833">
        <ele>22</ele>
        <time>2021-06-29T10:58:08+02:00</time>
      </trkpt>
      <trkpt lat="50.58179" lon="2.45815">
        <ele>23</ele>
        <time>2021-06-29T10:58:13+02:00</time>
      </trkpt>
      <trkpt lat="50.57899" lon="2.46057">
        <ele>23</ele>
        <time>2021-06-29T10:58:18+02:00</time>
      </trkpt>
      <trkpt lat="50.57846" lon="2.46189">
        <ele>22</ele>
        <time>2021-06-29T10:58:23+02:00</time>
      </trkpt>
      <trkpt lat="50.57783" lon="2.46516">
        <ele>23</ele>
        <time>2021-06-29T10:58:28+02:00</time>
      </trkpt>
      <trkpt lat="50.57553" lon="2.46737">
        <ele>23</ele>
        <time>2021-06-29T10:58:33+02:00</time>
      </trkpt>
      <trkpt lat="50.57441" lon="2.46854">
        <ele>22</ele>
        <time>2021-06-29T10:58:38+02:00</time>
      </trkpt>
      <trkpt lat="50.57205" lon="2.47267">
        <ele>22</ele>
        <time>2021-06-29T10:58:43+02:00</time>
      </trkpt>
      <trkpt lat="50.57029" lon="2.47529">
        <ele>25</ele>
        <time>2021-06-29T10:58:48+02:00</time>
      </trkpt>
      <trkpt lat="50.56948" lon="2.47601">
        <ele>27</ele>
        <time>2021-06-29T10:58:53+02:00</time>
      </trkpt>
      <trkpt lat="50.56858" lon="2.47648">
        <ele>28</ele>
        <time>2021-06-29T10:58:58+02:00</time>
      </trkpt>
    </trkseg>
  </trk>
</gpx>